createdAt,value
2018-09-24T00:00:50.341Z,2.10
2018-09-24T00:03:18.492Z,2.30
2018-09-24T00:05:46.568Z,3.00
2018-09-24T00:08:14.658Z,2.15
2018-09-24T00:10:42.731Z,2.50
2018-09-24T00:13:10.837Z,2.60
2018-09-24T00:15:38.907Z,2.15
2018-09-24T00:18:06.984Z,2.40
2018-09-24T00:20:35.057Z,2.70
2018-09-24T00:23:03.145Z,2.27
2018-09-24T00:25:31.220Z,2.60
2018-09-24T00:27:59.309Z,2.60
2018-09-24T00:30:27.383Z,2.83
2018-09-24T00:32:55.476Z,3.52
2018-09-24T00:35:23.560Z,3.20
2018-09-24T00:37:51.653Z,3.15
2018-09-24T00:40:19.750Z,2.80
2018-09-24T00:42:47.841Z,3.50
2018-09-24T00:45:15.915Z,3.17
2018-09-24T00:47:44.217Z,3.20
2018-09-24T00:50:12.643Z,3.17
2018-09-24T00:52:40.746Z,2.90
2018-09-24T00:55:08.823Z,3.75
2018-09-24T00:57:36.911Z,3.03
2018-09-24T01:00:05.001Z,3.80
2018-09-24T01:02:33.154Z,3.30
2018-09-24T01:05:01.292Z,3.23
2018-09-24T01:07:29.306Z,4.40
2018-09-24T01:09:57.369Z,3.87
2018-09-24T01:12:25.471Z,4.03
2018-09-24T01:14:53.548Z,5.55
2018-09-24T01:17:21.620Z,4.30
2018-09-24T01:19:49.742Z,3.77
2018-09-24T01:22:17.836Z,4.10
2018-09-24T01:24:45.945Z,3.30
2018-09-24T01:27:14.060Z,4.25
2018-09-24T01:29:42.132Z,4.10
2018-09-24T01:32:10.237Z,4.42
2018-09-24T01:34:38.315Z,4.22
2018-09-24T01:37:06.427Z,4.23
2018-09-24T01:39:34.525Z,4.50
2018-09-24T01:42:02.635Z,4.70
2018-09-24T01:44:30.726Z,4.62
2018-09-24T01:46:58.796Z,5.03
2018-09-24T01:49:26.907Z,4.33
2018-09-24T01:51:54.999Z,3.83
2018-09-24T01:54:27.758Z,5.42
2018-09-24T01:56:55.842Z,4.53
2018-09-24T01:59:24.015Z,5.00
2018-09-24T02:01:52.092Z,5.10
2018-09-24T02:04:20.162Z,4.83
2018-09-24T02:06:48.324Z,4.40
2018-09-24T02:09:16.407Z,4.83
2018-09-24T02:11:44.749Z,4.42
2018-09-24T02:14:12.844Z,4.90
2018-09-24T02:16:40.908Z,5.55
2018-09-24T02:19:08.995Z,5.78
2018-09-24T02:21:37.065Z,5.10
2018-09-24T02:24:06.161Z,5.35
2018-09-24T02:26:34.321Z,5.12
2018-09-24T02:29:02.417Z,4.95
2018-09-24T02:31:34.672Z,4.83
2018-09-24T02:34:02.766Z,5.35
2018-09-24T02:36:30.839Z,4.72
2018-09-24T02:38:58.937Z,5.33
2018-09-24T02:41:27.021Z,5.15
2018-09-24T02:43:55.091Z,5.00
2018-09-24T02:46:23.188Z,5.92
2018-09-24T02:48:51.266Z,5.60
2018-09-24T02:51:19.348Z,5.75
2018-09-24T02:53:47.431Z,5.17
2018-09-24T02:56:15.492Z,5.37
2018-09-24T02:58:43.579Z,5.97
2018-09-24T03:01:11.750Z,5.92
2018-09-24T03:03:39.755Z,7.22
2018-09-24T03:06:07.821Z,6.62
2018-09-24T03:08:37.029Z,6.80
2018-09-24T03:11:05.603Z,6.42
2018-09-24T03:13:33.709Z,6.87
2018-09-24T03:16:01.794Z,6.70
2018-09-24T03:18:29.912Z,7.10
2018-09-24T03:20:58.058Z,8.03
2018-09-24T03:23:26.180Z,9.68
2018-09-24T03:25:54.247Z,8.70
2018-09-24T03:28:23.248Z,7.67
2018-09-24T03:30:51.329Z,7.78
2018-09-24T03:33:19.440Z,7.92
2018-09-24T03:35:47.513Z,8.30
2018-09-24T03:38:15.592Z,8.15
2018-09-24T03:40:43.685Z,9.45
2018-09-24T03:43:11.758Z,8.60
2018-09-24T03:45:39.844Z,8.90
2018-09-24T03:48:07.910Z,8.68
2018-09-24T03:50:36.003Z,8.25
2018-09-24T03:53:04.095Z,7.40
2018-09-24T03:55:32.188Z,7.60
2018-09-24T03:58:00.247Z,8.00
2018-09-24T04:00:28.328Z,7.47
2018-09-24T04:02:56.435Z,8.25
2018-09-24T04:05:29.817Z,7.33
2018-09-24T04:08:03.136Z,8.08
2018-09-24T04:10:36.636Z,8.68
2018-09-24T04:13:10.043Z,8.13
2018-09-24T04:15:43.519Z,8.38
2018-09-24T04:18:17.015Z,7.80
2018-09-24T04:20:50.519Z,7.90
2018-09-24T04:23:24.045Z,7.78
2018-09-24T04:25:57.540Z,7.30
2018-09-24T04:28:31.012Z,7.87
2018-09-24T04:31:04.535Z,7.55
2018-09-24T04:33:37.901Z,8.05
2018-09-24T04:36:11.426Z,8.18
2018-09-24T04:38:44.867Z,8.50
2018-09-24T04:41:18.311Z,7.60
2018-09-24T04:43:51.764Z,7.92
2018-09-24T04:46:25.291Z,8.78
2018-09-24T04:48:58.902Z,8.98
2018-09-24T04:51:32.235Z,7.70
2018-09-24T04:54:05.744Z,8.60
2018-09-24T04:56:39.253Z,8.40
2018-09-24T04:59:12.600Z,8.28
2018-09-24T05:01:46.096Z,8.40
2018-09-24T05:04:19.642Z,7.42
2018-09-24T05:06:53.088Z,8.43
2018-09-24T05:09:26.562Z,8.33
2018-09-24T05:12:00.107Z,8.25
2018-09-24T05:14:33.586Z,7.50
2018-09-24T05:17:07.183Z,8.20
2018-09-24T05:19:40.654Z,7.67
2018-09-24T05:22:14.314Z,8.25
2018-09-24T05:24:47.652Z,8.05
2018-09-24T05:27:21.627Z,8.55
2018-09-24T05:29:55.082Z,8.00
2018-09-24T05:32:29.044Z,7.92
2018-09-24T05:35:02.583Z,7.90
2018-09-24T05:37:36.086Z,8.10
2018-09-24T05:40:09.527Z,8.25
2018-09-24T05:42:43.771Z,8.18
2018-09-24T05:45:23.795Z,7.55
2018-09-24T05:47:57.145Z,8.53
2018-09-24T05:50:30.631Z,8.35
2018-09-24T05:53:04.131Z,8.25
2018-09-24T05:55:37.618Z,9.30
2018-09-24T05:58:11.043Z,10.15
2018-09-24T06:00:44.491Z,8.58
2018-09-24T06:03:18.017Z,8.00
2018-09-24T06:05:51.540Z,8.80
2018-09-24T06:08:25.042Z,9.50
2018-09-24T06:10:58.571Z,9.00
2018-09-24T06:13:32.094Z,8.90
2018-09-24T06:16:05.478Z,7.92
2018-09-24T06:18:38.947Z,8.55
2018-09-24T06:21:12.415Z,9.03
2018-09-24T06:23:45.929Z,8.80
2018-09-24T06:26:19.456Z,7.70
2018-09-24T06:28:52.803Z,8.05
2018-09-24T06:31:26.299Z,9.28
2018-09-24T06:33:59.755Z,7.67
2018-09-24T06:36:33.280Z,6.80
2018-09-24T06:39:06.792Z,6.85
2018-09-24T06:41:40.321Z,6.50
2018-09-24T06:44:13.996Z,6.40
2018-09-24T06:46:47.488Z,6.15
2018-09-24T06:49:20.999Z,6.10
2018-09-24T06:51:54.505Z,6.58
2018-09-24T06:54:27.995Z,6.10
2018-09-24T06:57:01.492Z,6.17
2018-09-24T06:59:35.093Z,6.25
2018-09-24T07:02:08.530Z,6.17
2018-09-24T07:04:41.865Z,6.30
2018-09-24T07:07:15.371Z,6.25
2018-09-24T07:09:48.847Z,6.80
2018-09-24T07:12:22.356Z,7.92
2018-09-24T07:14:55.649Z,7.12
2018-09-24T07:17:29.164Z,6.28
2018-09-24T07:20:02.667Z,6.10
2018-09-24T07:22:36.078Z,6.10
2018-09-24T07:25:09.499Z,6.15
2018-09-24T07:27:43.047Z,6.55
2018-09-24T07:30:16.452Z,6.87
2018-09-24T07:32:49.965Z,5.33
2018-09-24T07:35:23.407Z,5.37
2018-09-24T07:37:56.878Z,5.80
2018-09-24T07:40:30.343Z,6.10
2018-09-24T07:43:03.922Z,5.70
2018-09-24T07:45:37.276Z,5.35
2018-09-24T07:48:10.823Z,5.77
2018-09-24T07:50:44.212Z,4.75
2018-09-24T07:53:17.746Z,5.62
2018-09-24T07:55:51.351Z,4.70
2018-09-24T07:58:24.776Z,4.87
2018-09-24T08:00:58.320Z,4.08
2018-09-24T08:03:31.755Z,4.62
2018-09-24T08:06:05.216Z,4.60
2018-09-24T08:08:38.702Z,3.60
2018-09-24T08:11:12.188Z,3.90
2018-09-24T08:13:45.523Z,4.27
2018-09-24T08:16:19.028Z,5.17
2018-09-24T08:18:52.586Z,4.17
2018-09-24T08:21:26.041Z,4.00
2018-09-24T08:23:59.575Z,3.60
2018-09-24T08:26:33.144Z,3.93
2018-09-24T08:29:06.680Z,3.60
2018-09-24T08:31:40.170Z,3.77
2018-09-24T08:34:13.744Z,3.25
2018-09-24T08:36:47.205Z,2.80
2018-09-24T08:39:20.527Z,3.22
2018-09-24T08:41:53.853Z,3.58
2018-09-24T08:44:27.360Z,3.08
2018-09-24T08:47:00.939Z,4.73
2018-09-24T08:49:34.270Z,3.13
2018-09-24T08:52:07.630Z,2.90
2018-09-24T08:54:41.181Z,2.97
2018-09-24T08:57:14.709Z,3.50
2018-09-24T08:59:48.137Z,3.42
2018-09-24T09:02:21.468Z,2.70
2018-09-24T09:04:54.825Z,1.50
2018-09-24T09:07:28.318Z,2.35
2018-09-24T09:10:01.849Z,2.42
2018-09-24T09:12:35.284Z,2.93
2018-09-24T09:15:08.755Z,1.83
2018-09-24T09:17:42.204Z,1.93
2018-09-24T09:20:15.714Z,1.77
2018-09-24T09:22:49.151Z,1.50
2018-09-24T09:25:22.489Z,1.97
2018-09-24T09:27:55.931Z,2.00
2018-09-24T09:30:29.484Z,1.70
2018-09-24T09:33:02.935Z,1.83
2018-09-24T09:35:36.427Z,1.50
2018-09-24T09:38:09.855Z,1.77
2018-09-24T09:40:43.230Z,1.27
2018-09-24T09:43:16.684Z,1.63
2018-09-24T09:45:50.241Z,1.30
2018-09-24T09:48:23.696Z,2.03
2018-09-24T09:50:57.054Z,1.20
2018-09-24T09:53:30.420Z,1.10
2018-09-24T09:56:03.684Z,1.33
2018-09-24T09:58:37.083Z,0.97
2018-09-24T10:01:10.526Z,1.40
2018-09-24T10:03:43.992Z,1.37
2018-09-24T10:06:17.456Z,1.33
2018-09-24T10:08:50.927Z,1.50
2018-09-24T10:11:24.427Z,1.00
2018-09-24T10:13:57.881Z,0.90
2018-09-24T10:16:31.440Z,1.37
2018-09-24T10:19:04.969Z,1.73
2018-09-24T10:21:38.416Z,1.27
2018-09-24T10:24:12.025Z,1.10
2018-09-24T10:26:45.436Z,1.30
2018-09-24T10:29:18.883Z,1.80
2018-09-24T10:31:52.383Z,1.50
2018-09-24T10:34:25.847Z,1.40
2018-09-24T10:36:59.192Z,1.40
2018-09-24T10:39:32.602Z,1.50
2018-09-24T10:42:06.036Z,0.80
2018-09-24T10:44:39.479Z,1.37
2018-09-24T10:47:12.879Z,1.53
2018-09-24T10:49:46.346Z,0.83
2018-09-24T10:52:19.666Z,1.00
2018-09-24T10:54:53.141Z,1.20
2018-09-24T10:57:26.623Z,1.07
2018-09-24T11:00:00.089Z,1.40
2018-09-24T11:02:33.632Z,0.83
2018-09-24T11:05:07.126Z,1.07
2018-09-24T11:07:40.651Z,1.03
2018-09-24T11:10:14.206Z,1.50
2018-09-24T11:12:47.676Z,1.13
2018-09-24T11:15:21.179Z,1.10
2018-09-24T11:17:54.860Z,0.80
2018-09-24T11:20:28.243Z,0.70
2018-09-24T11:23:01.578Z,0.83
2018-09-24T11:25:35.050Z,2.23
2018-09-24T11:28:08.525Z,0.93
2018-09-24T11:30:41.859Z,1.77
2018-09-24T11:33:15.191Z,1.00
2018-09-24T11:35:48.669Z,0.80
2018-09-24T11:38:22.181Z,1.07
2018-09-24T11:40:55.682Z,1.23
2018-09-24T11:43:29.027Z,1.00
2018-09-24T11:46:02.524Z,0.90
2018-09-24T11:48:35.988Z,1.30
2018-09-24T11:51:09.447Z,1.23
2018-09-24T11:53:42.971Z,1.10
2018-09-24T11:56:16.451Z,1.87
2018-09-24T11:58:49.933Z,1.20
2018-09-24T12:01:23.408Z,1.30
2018-09-24T12:03:56.895Z,1.43
2018-09-24T12:06:30.376Z,2.27
2018-09-24T12:09:03.706Z,1.10
2018-09-24T12:11:37.174Z,0.83
2018-09-24T12:14:10.571Z,0.90
2018-09-24T12:16:44.045Z,0.70
2018-09-24T12:19:17.536Z,0.70
2018-09-24T12:21:51.003Z,0.80
2018-09-24T12:24:24.589Z,1.03
2018-09-24T12:26:58.084Z,0.90
2018-09-24T12:29:31.547Z,0.83
2018-09-24T12:32:05.059Z,1.10
2018-09-24T12:34:38.584Z,1.00
2018-09-24T12:37:12.063Z,1.23
2018-09-24T12:39:45.598Z,0.60
2018-09-24T12:42:19.023Z,1.10
2018-09-24T12:44:52.476Z,1.10
2018-09-24T12:47:25.956Z,1.13
2018-09-24T12:49:59.491Z,0.50
2018-09-24T12:52:32.999Z,1.30
2018-09-24T12:55:06.494Z,0.50
2018-09-24T12:57:40.016Z,0.60
2018-09-24T13:00:13.499Z,0.67
2018-09-24T13:02:46.979Z,0.60
2018-09-24T13:05:20.488Z,1.00
2018-09-24T13:07:53.955Z,0.93
2018-09-24T13:10:27.363Z,0.73
2018-09-24T13:13:00.748Z,0.80
2018-09-24T13:15:34.161Z,1.23
2018-09-24T13:18:07.657Z,1.00
2018-09-24T13:20:41.108Z,0.80
2018-09-24T13:23:14.545Z,0.80
2018-09-24T13:25:47.915Z,0.70
2018-09-24T13:28:21.380Z,0.70
2018-09-24T13:30:54.875Z,1.03
2018-09-24T13:33:28.379Z,0.90
2018-09-24T13:36:01.829Z,0.60
2018-09-24T13:38:35.291Z,0.73
2018-09-24T13:41:08.771Z,0.80
2018-09-24T13:43:42.253Z,1.17
2018-09-24T13:46:15.827Z,0.80
2018-09-24T13:48:49.304Z,0.80
2018-09-24T13:51:22.802Z,1.20
2018-09-24T13:53:56.263Z,1.23
2018-09-24T13:56:29.763Z,1.23
2018-09-24T13:59:03.219Z,0.70
2018-09-24T14:01:36.700Z,1.20
2018-09-24T14:04:10.044Z,0.60
2018-09-24T14:06:43.532Z,1.23
2018-09-24T14:09:17.015Z,1.00
2018-09-24T14:11:50.503Z,0.80
2018-09-24T14:14:23.962Z,0.80
2018-09-24T14:16:57.469Z,0.80
2018-09-24T14:19:30.922Z,1.00
2018-09-24T14:22:04.432Z,0.90
2018-09-24T14:24:37.923Z,0.70
2018-09-24T14:27:11.496Z,0.70
2018-09-24T14:29:44.956Z,0.80
2018-09-24T14:32:18.471Z,0.90
2018-09-24T14:34:51.932Z,0.53
2018-09-24T14:37:25.293Z,1.03
2018-09-24T14:40:05.747Z,1.20
2018-09-24T14:42:39.167Z,0.87
2018-09-24T14:45:12.656Z,0.70
2018-09-24T14:47:46.232Z,0.70
2018-09-24T14:50:19.702Z,1.30
2018-09-24T14:52:53.164Z,0.77
2018-09-24T14:55:26.648Z,0.83
2018-09-24T14:58:00.159Z,0.80
2018-09-24T15:00:33.659Z,1.07
2018-09-24T15:03:07.207Z,1.07
2018-09-24T15:05:40.640Z,0.70
2018-09-24T15:08:14.201Z,0.70
2018-09-24T15:10:47.563Z,0.83
2018-09-24T15:13:20.933Z,0.67
2018-09-24T15:15:54.232Z,0.60
2018-09-24T15:18:27.751Z,0.97
2018-09-24T15:21:01.286Z,0.90
2018-09-24T15:23:34.734Z,0.70
2018-09-24T15:26:08.091Z,0.77
2018-09-24T15:28:41.639Z,1.40
2018-09-24T15:31:15.287Z,0.73
2018-09-24T15:33:48.758Z,2.57
2018-09-24T15:36:22.258Z,10.93
2018-09-24T15:38:55.737Z,0.60
2018-09-24T15:41:29.200Z,0.80
2018-09-24T15:44:02.604Z,0.70
2018-09-24T15:46:36.010Z,0.63
2018-09-24T15:49:09.505Z,1.10
2018-09-24T15:51:42.995Z,0.83
2018-09-24T15:54:16.486Z,1.03
2018-09-24T15:56:52.814Z,1.17
2018-09-24T15:59:26.281Z,1.00
2018-09-24T16:01:59.814Z,2.10
2018-09-24T16:04:33.156Z,1.57
2018-09-24T16:07:06.672Z,1.00
2018-09-24T16:09:40.179Z,1.30
2018-09-24T16:12:16.029Z,0.73
2018-09-24T16:14:49.834Z,1.10
2018-09-24T16:17:23.167Z,0.70
2018-09-24T16:19:56.692Z,0.80
2018-09-24T16:22:30.067Z,0.70
2018-09-24T16:25:03.559Z,0.83
2018-09-24T16:27:37.931Z,0.80
2018-09-24T16:30:11.760Z,0.90
2018-09-24T16:32:45.122Z,0.70
2018-09-24T16:35:18.656Z,0.70
2018-09-24T16:37:52.044Z,0.70
2018-09-24T16:40:25.547Z,0.80
2018-09-24T16:42:59.252Z,1.20
2018-09-24T16:45:32.618Z,1.30
2018-09-24T16:48:06.096Z,0.87
2018-09-24T16:50:39.577Z,0.80
2018-09-24T16:53:13.024Z,0.90
2018-09-24T16:55:46.487Z,0.70
2018-09-24T16:58:20.056Z,0.73
2018-09-24T17:00:53.426Z,1.03
2018-09-24T17:03:29.926Z,0.90
2018-09-24T17:06:03.333Z,0.60
2018-09-24T17:08:37.346Z,0.63
2018-09-24T17:11:10.819Z,0.60
2018-09-24T17:13:44.780Z,0.90
2018-09-24T17:16:18.307Z,0.60
2018-09-24T17:19:01.366Z,0.80
2018-09-24T17:21:55.309Z,1.17
2018-09-24T17:27:49.624Z,0.90
2018-09-24T17:30:33.264Z,0.70
2018-09-24T17:33:09.028Z,0.80
2018-09-24T17:35:46.246Z,0.80
2018-09-24T17:47:31.301Z,1.00
2018-09-24T17:50:05.387Z,0.73
2018-09-24T17:52:38.950Z,1.00
2018-09-24T17:55:12.391Z,0.90
2018-09-24T17:57:45.853Z,0.73
2018-09-24T18:00:19.304Z,1.27
2018-09-24T18:02:52.783Z,0.73
2018-09-24T18:05:26.358Z,1.00
2018-09-24T18:08:01.063Z,1.00
2018-09-24T18:10:34.763Z,0.73
2018-09-24T18:13:08.315Z,0.80
2018-09-24T18:15:41.841Z,0.90
2018-09-24T18:18:15.500Z,0.70
2018-09-24T18:20:50.301Z,1.07
2018-09-24T18:23:23.995Z,0.60
2018-09-24T18:25:57.445Z,0.70
2018-09-24T18:28:31.895Z,0.60
2018-09-24T18:31:06.049Z,1.00
2018-09-24T18:33:41.220Z,0.70
2018-09-24T18:36:15.411Z,0.80
2018-09-24T18:38:50.218Z,0.60
2018-09-24T18:41:24.135Z,0.90
2018-09-24T18:43:57.571Z,0.97
2018-09-24T18:46:32.231Z,0.80
2018-09-24T18:49:05.864Z,0.80
2018-09-24T18:51:40.669Z,1.83
2018-09-24T18:54:14.371Z,0.97
2018-09-24T18:56:51.263Z,1.03
2018-09-24T18:59:25.058Z,0.80
2018-09-24T19:01:58.533Z,1.00
2018-09-24T19:04:38.402Z,1.17
2018-09-24T19:07:12.085Z,1.10
2018-09-24T19:09:45.895Z,1.00
2018-09-24T19:12:19.444Z,1.03
2018-09-24T19:14:53.187Z,1.10
2018-09-24T19:17:26.769Z,0.90
2018-09-24T19:20:00.445Z,1.30
2018-09-24T19:22:34.151Z,1.43
2018-09-24T19:25:08.071Z,2.00
2018-09-24T19:27:42.832Z,1.77
2018-09-24T19:30:16.565Z,1.63
2018-09-24T19:32:50.187Z,1.97
2018-09-24T19:35:42.177Z,1.97
2018-09-24T19:38:17.138Z,2.43
2018-09-24T19:40:51.724Z,1.47
2018-09-24T19:46:30.228Z,0.97
2018-09-24T19:49:03.923Z,1.23
2018-09-24T19:51:37.616Z,1.00
2018-09-24T19:54:11.955Z,0.80
2018-09-24T19:56:47.803Z,1.00
2018-09-24T19:59:26.860Z,1.40
2018-09-24T20:02:16.638Z,0.90
2018-09-24T20:04:51.424Z,1.30
2018-09-24T20:07:31.228Z,1.20
2018-09-24T20:10:08.279Z,1.17
2018-09-24T20:12:48.098Z,1.10
2018-09-24T20:15:38.951Z,1.05
2018-09-24T20:18:12.955Z,1.27
2018-09-24T20:20:47.466Z,1.25
2018-09-24T20:23:21.629Z,1.52
2018-09-24T20:25:55.880Z,1.10
2018-09-24T20:28:29.368Z,0.90
2018-09-24T20:31:03.103Z,1.10
2018-09-24T20:33:36.807Z,1.23
2018-09-24T20:36:16.466Z,1.45
2018-09-24T20:38:50.343Z,1.77
2018-09-24T20:41:23.866Z,1.00
2018-09-24T20:43:57.799Z,1.10
2018-09-24T20:46:31.779Z,0.90
2018-09-24T20:49:05.416Z,1.85
2018-09-24T20:51:39.194Z,0.93
2018-09-24T20:54:12.715Z,0.95
2018-09-24T20:56:46.789Z,1.50
2018-09-24T20:59:20.433Z,1.00
2018-09-24T21:01:54.096Z,1.30
2018-09-24T21:04:28.457Z,1.10
2018-09-24T21:07:01.921Z,1.20
2018-09-24T21:09:35.416Z,1.02
2018-09-24T21:12:10.365Z,1.03
2018-09-24T21:14:43.993Z,1.43
2018-09-24T21:17:17.476Z,1.27
2018-09-24T21:19:50.956Z,0.90
2018-09-24T21:22:24.919Z,0.82
2018-09-24T21:24:58.435Z,0.90
2018-09-24T21:27:33.347Z,1.10
2018-09-24T21:30:07.298Z,1.00
2018-09-24T21:32:40.685Z,0.90
2018-09-24T21:35:14.569Z,1.57
2018-09-24T21:37:48.223Z,1.77
2018-09-24T21:40:21.750Z,1.40
2018-09-24T21:42:55.422Z,0.85
2018-09-24T21:45:29.083Z,1.10
2018-09-24T21:48:02.756Z,0.70
2018-09-24T21:50:36.389Z,0.90
2018-09-24T21:53:09.852Z,1.70
2018-09-24T21:55:43.290Z,1.47
2018-09-24T21:58:16.845Z,1.40
2018-09-24T22:00:50.433Z,1.80
2018-09-24T22:03:23.891Z,1.42
2018-09-24T22:05:58.135Z,1.30
2018-09-24T22:08:31.769Z,1.50
2018-09-24T22:11:05.567Z,2.15
2018-09-24T22:13:39.047Z,1.55
2018-09-24T22:16:16.848Z,1.40
2018-09-24T22:18:52.735Z,1.57
2018-09-24T22:21:26.316Z,1.80
2018-09-24T22:23:59.791Z,2.10
2018-09-24T22:26:33.455Z,1.32
2018-09-24T22:29:07.001Z,1.87
2018-09-24T22:31:40.681Z,1.90
2018-09-24T22:34:14.355Z,2.20
2018-09-24T22:36:47.949Z,1.55
2018-09-24T22:39:42.111Z,1.20
2018-09-24T22:42:23.898Z,1.67
2018-09-24T22:44:57.795Z,1.50
2018-09-24T22:50:44.836Z,1.20
2018-09-24T22:53:18.474Z,1.32
2018-09-24T22:55:52.205Z,1.45
2018-09-24T22:58:25.733Z,1.50
2018-09-24T23:01:00.376Z,1.35
2018-09-24T23:03:33.875Z,1.80
2018-09-24T23:06:07.425Z,1.30
2018-09-24T23:08:40.948Z,1.17
2018-09-24T23:11:14.444Z,3.17
2018-09-24T23:13:47.795Z,1.40
2018-09-24T23:16:21.303Z,1.22
2018-09-24T23:18:54.747Z,1.30
2018-09-24T23:21:28.259Z,2.67
2018-09-24T23:24:01.724Z,1.65
2018-09-24T23:26:35.320Z,1.30
2018-09-24T23:29:08.735Z,1.20
2018-09-24T23:31:42.249Z,1.67
2018-09-24T23:34:15.753Z,1.37
2018-09-24T23:36:49.277Z,1.65
2018-09-24T23:39:22.627Z,1.40
2018-09-24T23:41:56.007Z,1.40
2018-09-24T23:44:29.505Z,1.52
2018-09-24T23:47:03.020Z,1.30
2018-09-24T23:49:36.366Z,1.30
2018-09-24T23:52:09.810Z,1.55
2018-09-24T23:54:43.246Z,1.30
2018-09-24T23:57:16.700Z,1.30
2018-09-24T23:59:50.147Z,1.50
